Zero Trim — WCY3091 — position and weather

sailwx.info

Track history (hours):
 
Tides and Currents Weather Stations Pressure Air Temp Water Temp Dewpoint Dewpoint Depression Visibility Wind Speed Wind Dir Waves Ship Positions

Zero Trim

Owner: TRIMBLE, ROBERT M, BELLEVUE, WA. More information available from US FCC via Universal Licensing System and Coast Guard Vessel Documentation Center.

Last reported at 2015-Jun-01 18:16 UTC. Time now 2015-Jun-02 01:26 UTC.
Position N 47°43' W 122°31'.

Length 23 m.

Type: Pleasure craft. MMSI: 366747760.

Date/timePositionNaut miles runAvg speedWind from/ knotsBaromVisibWave heightAir tempDewpointWater temp
2015-Jun-01 18:16N 47°43' W 122°31'4 8.9
2015-Jun-01 17:52N 47°46' W 122°27'310.7
2015-Jun-01 17:33N 47°49' W 122°25'44 1.0
2015-May-30 19:23N 48°31' W 122°43'7 8.3
2015-May-30 18:33N 48°36' W 122°51'3 3.0
2015-May-30 17:29N 48°39' W 122°52'0 0.0
2015-May-30 16:29N 48°39' W 122°52'0 0.0
2015-May-30 15:31N 48°39' W 122°52'0 0.0
2015-May-30 14:31N 48°39' W 122°52'0 0.0
2015-May-30 13:25N 48°39' W 122°52'0 0.0
2015-May-30 12:31N 48°39' W 122°52'0 0.0
2015-May-30 11:29N 48°39' W 122°52'0 0.0
2015-May-30 10:23N 48°39' W 122°52'0 0.0
2015-May-30 09:31N 48°39' W 122°52'0 0.0
2015-May-30 08:32N 48°39' W 122°52'0 0.0
2015-May-30 07:32N 48°39' W 122°52'0 0.0
2015-May-30 06:26N 48°39' W 122°52'0 0.0
2015-May-30 05:32N 48°39' W 122°52'0 0.0
2015-May-30 04:32N 48°39' W 122°52'0 0.0
2015-May-30 03:32N 48°39' W 122°52'0 0.0
2015-May-30 02:29N 48°39' W 122°52'0 0.0
2015-May-30 01:18N 48°39' W 122°52'0 0.0
2015-May-30 00:24N 48°39' W 122°52'0 0.0
2015-May-29 23:30N 48°39' W 122°52'0 0.0
2015-May-29 22:30N 48°39' W 122°52'0 0.0
2015-May-29 21:30N 48°39' W 122°52'0 0.0
2015-May-29 20:30N 48°39' W 122°52'4 3.9
2015-May-29 19:33N 48°35' W 122°54'6 8.1
2015-May-29 18:46N 48°37' W 123°03'511.3
2015-May-29 18:21N 48°38' W 123°10'1 0.9
2015-May-29 17:06N 48°37' W 123°09'0 0.0
2015-May-29 12:59N 48°37' W 123°09'0 0.0
2015-May-29 12:08N 48°37' W 123°09'0 0.0
2015-May-29 09:32N 48°37' W 123°09'10 0.6
2015-May-28 17:11N 48°44' W 123°18'  
Track history (hours):
 
Tides and Currents Weather Stations Pressure Air Temp Water Temp Dewpoint Dewpoint Depression Visibility Wind Speed Wind Dir Waves Ship Positions

Zero Trim

Owner: TRIMBLE, ROBERT M, BELLEVUE, WA. More information available from US FCC via Universal Licensing System and Coast Guard Vessel Documentation Center.

Last reported at 2015-Jun-01 18:16 UTC. Time now 2015-Jun-02 01:26 UTC.
Position N 47°43' W 122°31'.

Length 23 m.

Type: Pleasure craft. MMSI: 366747760.

Date/timePositionNaut miles runAvg speedWind from/ knotsBaromVisibWave heightAir tempDewpointWater temp
2015-Jun-01 18:16N 47°43' W 122°31'4 8.9
2015-Jun-01 17:52N 47°46' W 122°27'310.7
2015-Jun-01 17:33N 47°49' W 122°25'44 1.0
2015-May-30 19:23N 48°31' W 122°43'7 8.3
2015-May-30 18:33N 48°36' W 122°51'3 3.0
2015-May-30 17:29N 48°39' W 122°52'0 0.0
2015-May-30 16:29N 48°39' W 122°52'0 0.0
2015-May-30 15:31N 48°39' W 122°52'0 0.0
2015-May-30 14:31N 48°39' W 122°52'0 0.0
2015-May-30 13:25N 48°39' W 122°52'0 0.0
2015-May-30 12:31N 48°39' W 122°52'0 0.0
2015-May-30 11:29N 48°39' W 122°52'0 0.0
2015-May-30 10:23N 48°39' W 122°52'0 0.0
2015-May-30 09:31N 48°39' W 122°52'0 0.0
2015-May-30 08:32N 48°39' W 122°52'0 0.0
2015-May-30 07:32N 48°39' W 122°52'0 0.0
2015-May-30 06:26N 48°39' W 122°52'0 0.0
2015-May-30 05:32N 48°39' W 122°52'0 0.0
2015-May-30 04:32N 48°39' W 122°52'0 0.0
2015-May-30 03:32N 48°39' W 122°52'0 0.0
2015-May-30 02:29N 48°39' W 122°52'0 0.0
2015-May-30 01:18N 48°39' W 122°52'0 0.0
2015-May-30 00:24N 48°39' W 122°52'0 0.0
2015-May-29 23:30N 48°39' W 122°52'0 0.0
2015-May-29 22:30N 48°39' W 122°52'0 0.0
2015-May-29 21:30N 48°39' W 122°52'0 0.0
2015-May-29 20:30N 48°39' W 122°52'4 3.9
2015-May-29 19:33N 48°35' W 122°54'6 8.1
2015-May-29 18:46N 48°37' W 123°03'511.3
2015-May-29 18:21N 48°38' W 123°10'1 0.9
2015-May-29 17:06N 48°37' W 123°09'0 0.0
2015-May-29 12:59N 48°37' W 123°09'0 0.0
2015-May-29 12:08N 48°37' W 123°09'0 0.0
2015-May-29 09:32N 48°37' W 123°09'10 0.6
2015-May-28 17:11N 48°44' W 123°18'  

Dump ship's entire track history